createdAt,value
2023-05-01T00:00:05.639Z,61
2023-05-01T00:20:03.236Z,62
2023-05-01T00:40:02.821Z,63
2023-05-01T01:00:03.067Z,63
2023-05-01T01:20:02.725Z,64
2023-05-01T01:40:03.060Z,64
2023-05-01T02:00:02.507Z,65
2023-05-01T02:20:02.266Z,66
2023-05-01T02:40:02.823Z,66
2023-05-01T03:00:03.073Z,67
2023-05-01T03:20:02.543Z,67
2023-05-01T03:40:03.189Z,67
2023-05-01T04:00:02.553Z,67
2023-05-01T04:20:03.116Z,68
2023-05-01T04:40:02.633Z,69
2023-05-01T05:00:03.026Z,67
2023-05-01T05:20:02.364Z,65
2023-05-01T05:40:02.742Z,62
2023-05-01T06:00:03.218Z,60
2023-05-01T06:20:02.873Z,57
2023-05-01T06:40:02.322Z,53
2023-05-01T07:00:02.585Z,49
2023-05-01T07:20:03.030Z,44
2023-05-01T07:40:02.608Z,42
2023-05-01T08:00:03.494Z,39
2023-05-01T08:20:03.223Z,37
2023-05-01T08:40:02.523Z,34
2023-05-01T09:00:03.114Z,32
2023-05-01T09:20:02.748Z,31
2023-05-01T09:40:03.242Z,30
2023-05-01T10:00:03.095Z,29
2023-05-01T10:20:02.819Z,28
2023-05-01T10:40:03.356Z,27
2023-05-01T11:00:02.756Z,28
2023-05-01T11:20:02.414Z,27
2023-05-01T11:40:02.877Z,26
2023-05-01T12:00:02.609Z,28
2023-05-01T12:20:03.295Z,26
2023-05-01T12:40:02.936Z,27
2023-05-01T13:00:02.521Z,28
2023-05-01T13:20:03.788Z,29
2023-05-01T13:40:02.766Z,30
2023-05-01T14:00:03.075Z,30
2023-05-01T14:20:02.676Z,31
2023-05-01T14:40:03.365Z,30
2023-05-01T15:00:02.932Z,30
2023-05-01T15:20:02.859Z,30
2023-05-01T15:40:03.331Z,30
2023-05-01T16:00:03.556Z,31
2023-05-01T16:20:03.777Z,31
2023-05-01T16:40:03.648Z,31
2023-05-01T17:00:04.004Z,31
2023-05-01T17:20:03.640Z,32
2023-05-01T17:40:03.625Z,33
2023-05-01T18:00:04.178Z,34
2023-05-01T18:20:03.137Z,37
2023-05-01T18:40:02.936Z,41
2023-05-01T19:00:04.444Z,43
2023-05-01T19:20:02.707Z,46
2023-05-01T19:40:03.336Z,47
2023-05-01T20:00:02.960Z,48
2023-05-01T20:20:02.660Z,50
2023-05-01T20:40:03.064Z,52
2023-05-01T21:00:02.876Z,53
2023-05-01T21:20:02.833Z,54
2023-05-01T21:40:03.457Z,55
2023-05-01T22:00:02.926Z,58
2023-05-01T22:20:03.208Z,58
2023-05-01T22:40:03.471Z,58
2023-05-01T23:00:03.286Z,59
2023-05-01T23:20:03.128Z,60
2023-05-01T23:40:03.334Z,61
